Aneth, UT

7:55 AM MST on November 26, 2014 (GMT -0700)
MesoWest MCCRACKEN MESA UT US SCAN | Change Station
CLOSE
Current Station
Personal Weather Station
Location: Montezuma Creek, UT
Elevation: 5318 ft
Nearby Weather Stations

Elev 5318 ft 37.43 °N, 109.33 °W | Updated 55 minutes ago

Partly Cloudy
Partly Cloudy
30 °F
Feels Like 26 °F
N
4
Wind Variable Wind from NNE
Gusts 0.0 mph

Today
High -- | Low -- °F
--% Chance of Precip.
Yesterday
High -- | Low -- °F
Precip. -- in
7:07 AM 5:01 PM
Waxing Crescent, 20% visible
Pressure 30.45 in
Visibility 10.0 miles
Clouds Clear
Windchill 26 °F
Dew Point 12 °F
Humidity 48%
Rainfall -999.00 in
Snow Depth Not available.
UV 0 out of 12
Pollen .30 out of 12
Air Quality Not available.
Flu Activity Not available.
METAR KBDG 261435Z AUTO 08003KT 10SM CLR 00/M09 A3045 RMK AO1 T10041090

More Conditions Fewer Conditions

Pressure 30.45 in
Visibility 10.0 miles
Clouds Clear
Windchill 26 °F
Dew Point 12 °F
Humidity 48%
Rainfall -999.00 in
Snow Depth Not available.
UV 0 out of 12
Pollen .30 out of 12
Air Quality Not available.
Flu Activity Not available.
METAR KBDG 261435Z AUTO 08003KT 10SM CLR 00/M09 A3045 RMK AO1 T10041090

More Conditions Fewer Conditions

10-Day Weather Forecast

Almanac

Astronomy

Nov. 26, 2014 Rise Set
Actual Time
Civil Twilight
Nautical Twilight
Astronomical Twilight
Moon
Length of Visible Light
Length of Day
Tomorrow will be .
, % of the Moon is Illuminated

Today's Extremes

State Highs State Lows

Community

WunderPhotos

Upload Photos

1,773,756 photos uploaded!

WunderBlogs® & News

Nearby

Air Quality

  Air Quality AQ Index Pollutant
Not available.

Snow Depth

Station Depth Elevation

Earthquake Activity

City Distance Mag. Time & Date
Minimum magnitude displayed is 2.5.

Coastal Water Temperatures

Place Temperature

Nearby Weather Stations